createdAt,value
2022-10-10T00:00:50.315Z,3.65
2022-10-10T00:03:18.413Z,3.13
2022-10-10T00:05:45.603Z,3.03
2022-10-10T00:08:12.401Z,3.47
2022-10-10T00:10:39.151Z,3.33
2022-10-10T00:13:06.376Z,4.05
2022-10-10T00:15:33.174Z,3.70
2022-10-10T00:18:00.065Z,3.80
2022-10-10T00:20:26.912Z,3.80
2022-10-10T00:22:53.872Z,3.33
2022-10-10T00:25:21.612Z,4.60
2022-10-10T00:27:48.316Z,3.08
2022-10-10T00:30:14.996Z,3.92
2022-10-10T00:32:41.674Z,3.10
2022-10-10T00:35:08.640Z,3.50
2022-10-10T00:37:35.239Z,3.60
2022-10-10T00:40:02.291Z,3.33
2022-10-10T00:42:32.544Z,3.35
2022-10-10T00:45:24.154Z,3.28
2022-10-10T00:47:53.311Z,3.22
2022-10-10T00:50:22.735Z,3.22
2022-10-10T00:52:50.357Z,3.35
2022-10-10T00:55:18.051Z,3.47
2022-10-10T00:57:44.981Z,3.50
2022-10-10T01:00:11.929Z,3.30
2022-10-10T01:02:39.092Z,3.58
2022-10-10T01:05:06.052Z,3.22
2022-10-10T01:07:34.041Z,3.10
2022-10-10T01:10:06.834Z,3.25
2022-10-10T01:13:18.064Z,3.20
2022-10-10T01:16:10.825Z,3.17
2022-10-10T01:19:12.887Z,3.50
2022-10-10T01:21:48.199Z,2.97
2022-10-10T01:24:30.079Z,3.85
2022-10-10T01:27:16.026Z,3.25
2022-10-10T01:29:51.395Z,3.83
2022-10-10T01:35:27.867Z,3.28
2022-10-10T01:38:02.656Z,3.38
2022-10-10T01:40:32.201Z,3.30
2022-10-10T01:43:03.351Z,3.60
2022-10-10T01:45:31.556Z,3.50
2022-10-10T01:48:04.133Z,3.33
2022-10-10T01:50:35.936Z,3.75
2022-10-10T01:53:09.910Z,3.50
2022-10-10T01:55:55.289Z,3.25
2022-10-10T01:58:46.970Z,3.15
2022-10-10T02:01:32.003Z,3.40
2022-10-10T02:04:23.330Z,3.60
2022-10-10T02:06:56.827Z,3.22
2022-10-10T02:09:37.454Z,3.47
2022-10-10T02:12:05.071Z,3.67
2022-10-10T02:14:41.338Z,3.47
2022-10-10T02:17:12.035Z,3.53
2022-10-10T02:19:42.939Z,3.30
2022-10-10T02:22:10.739Z,3.40
2022-10-10T02:24:37.500Z,3.20
2022-10-10T02:27:11.549Z,3.20
2022-10-10T02:29:40.594Z,3.47
2022-10-10T02:32:32.896Z,3.63
2022-10-10T02:35:07.205Z,3.42
2022-10-10T02:37:36.260Z,4.30
2022-10-10T02:40:05.838Z,3.83
2022-10-10T02:42:33.783Z,3.45
2022-10-10T02:45:00.892Z,3.40
2022-10-10T02:47:27.623Z,3.72
2022-10-10T02:49:54.276Z,3.33
2022-10-10T02:52:20.982Z,3.70
2022-10-10T02:54:47.642Z,3.55
2022-10-10T02:57:14.288Z,3.10
2022-10-10T02:59:41.136Z,3.30
2022-10-10T03:02:08.420Z,3.35
2022-10-10T03:04:36.171Z,3.20
2022-10-10T03:07:04.267Z,3.15
2022-10-10T03:09:31.001Z,3.20
2022-10-10T03:11:57.608Z,3.70
2022-10-10T03:14:24.309Z,3.33
2022-10-10T03:16:50.952Z,3.55
2022-10-10T03:19:17.675Z,3.50
2022-10-10T03:21:44.551Z,3.45
2022-10-10T03:24:11.283Z,3.88
2022-10-10T03:26:37.996Z,3.60
2022-10-10T03:29:05.235Z,3.20
2022-10-10T03:31:31.989Z,3.25
2022-10-10T03:33:58.828Z,3.58
2022-10-10T03:36:25.578Z,3.30
2022-10-10T03:38:52.203Z,3.60
2022-10-10T03:41:18.845Z,3.47
2022-10-10T03:43:45.499Z,3.40
2022-10-10T03:46:15.932Z,3.42
2022-10-10T03:48:43.187Z,3.70
2022-10-10T03:51:09.944Z,3.40
2022-10-10T03:53:37.177Z,3.33
2022-10-10T03:56:03.965Z,3.70
2022-10-10T03:58:30.678Z,3.80
2022-10-10T04:00:59.666Z,3.78
2022-10-10T04:03:26.755Z,3.40
2022-10-10T04:05:53.935Z,3.50
2022-10-10T04:08:20.711Z,3.28
2022-10-10T04:10:54.765Z,3.40
2022-10-10T04:13:21.817Z,3.88
2022-10-10T04:15:53.275Z,3.75
2022-10-10T04:18:20.053Z,3.42
2022-10-10T04:20:46.662Z,3.80
2022-10-10T04:23:14.526Z,3.30
2022-10-10T04:25:42.016Z,3.63
2022-10-10T04:28:12.090Z,4.07
2022-10-10T04:30:38.768Z,3.42
2022-10-10T04:33:05.540Z,3.80
2022-10-10T04:35:32.387Z,3.80
2022-10-10T04:37:59.063Z,3.25
2022-10-10T04:40:26.976Z,3.97
2022-10-10T04:42:54.819Z,3.90
2022-10-10T04:45:21.556Z,3.92
2022-10-10T04:47:48.177Z,3.88
2022-10-10T04:50:14.782Z,4.10
2022-10-10T04:52:41.384Z,3.92
2022-10-10T04:55:08.295Z,3.90
2022-10-10T04:57:34.911Z,3.70
2022-10-10T05:00:01.912Z,3.78
2022-10-10T05:02:28.563Z,3.80
2022-10-10T05:04:55.349Z,3.88
2022-10-10T05:07:22.001Z,4.00
2022-10-10T05:09:48.629Z,4.00
2022-10-10T05:12:15.436Z,3.70
2022-10-10T05:14:47.212Z,4.10
2022-10-10T05:17:15.387Z,3.72
2022-10-10T05:19:42.002Z,3.58
2022-10-10T05:22:08.639Z,3.40
2022-10-10T05:24:35.323Z,3.72
2022-10-10T05:27:01.913Z,3.55
2022-10-10T05:29:28.702Z,3.80
2022-10-10T05:31:55.745Z,3.60
2022-10-10T05:34:22.368Z,4.00
2022-10-10T05:36:49.023Z,3.90
2022-10-10T05:39:15.855Z,4.20
2022-10-10T05:41:42.489Z,3.60
2022-10-10T05:44:10.154Z,3.63
2022-10-10T05:46:36.855Z,3.42
2022-10-10T05:49:03.566Z,3.40
2022-10-10T05:51:30.237Z,3.40
2022-10-10T05:53:57.482Z,3.40
2022-10-10T05:56:24.820Z,3.78
2022-10-10T05:58:51.690Z,3.55
2022-10-10T06:01:18.693Z,3.67
2022-10-10T06:03:45.371Z,3.75
2022-10-10T06:06:12.008Z,3.70
2022-10-10T06:08:38.639Z,3.75
2022-10-10T06:11:11.250Z,3.95
2022-10-10T06:13:39.007Z,3.80
2022-10-10T06:16:05.801Z,3.47
2022-10-10T06:18:32.422Z,3.75
2022-10-10T06:21:05.217Z,3.47
2022-10-10T06:23:32.408Z,4.03
2022-10-10T06:25:59.450Z,4.65
2022-10-10T06:28:26.202Z,3.13
2022-10-10T06:30:52.985Z,4.20
2022-10-10T06:33:19.827Z,3.38
2022-10-10T06:35:48.686Z,3.83
2022-10-10T06:38:16.752Z,3.60
2022-10-10T06:40:44.668Z,3.75
2022-10-10T06:43:12.837Z,3.53
2022-10-10T06:45:41.665Z,3.30
2022-10-10T06:48:09.510Z,3.70
2022-10-10T06:50:36.268Z,3.75
2022-10-10T06:53:03.110Z,3.67
2022-10-10T06:55:29.719Z,4.05
2022-10-10T06:57:57.291Z,3.63
2022-10-10T07:00:24.519Z,3.90
2022-10-10T07:02:52.481Z,3.80
2022-10-10T07:05:19.496Z,3.45
2022-10-10T07:07:46.241Z,3.45
2022-10-10T07:10:14.601Z,3.60
2022-10-10T07:12:44.730Z,3.97
2022-10-10T07:15:12.346Z,3.90
2022-10-10T07:17:39.283Z,3.70
2022-10-10T07:20:06.574Z,3.78
2022-10-10T07:22:33.220Z,4.43
2022-10-10T07:24:59.849Z,4.03
2022-10-10T07:27:26.483Z,3.92
2022-10-10T07:29:53.084Z,3.88
2022-10-10T07:32:19.699Z,3.78
2022-10-10T07:34:46.327Z,4.10
2022-10-10T07:37:12.911Z,4.28
2022-10-10T07:39:39.591Z,3.97
2022-10-10T07:42:06.229Z,4.18
2022-10-10T07:44:34.708Z,4.03
2022-10-10T07:47:01.745Z,3.83
2022-10-10T07:49:28.423Z,3.53
2022-10-10T07:51:58.847Z,3.92
2022-10-10T07:54:28.841Z,3.70
2022-10-10T07:56:55.500Z,3.75
2022-10-10T07:59:23.266Z,3.83
2022-10-10T08:01:50.365Z,4.15
2022-10-10T08:04:17.745Z,3.70
2022-10-10T08:06:44.484Z,4.03
2022-10-10T08:09:11.499Z,3.63
2022-10-10T08:11:38.148Z,4.10
2022-10-10T08:14:04.784Z,6.60
2022-10-10T08:16:31.613Z,4.45
2022-10-10T08:18:58.544Z,4.82
2022-10-10T08:21:25.193Z,4.40
2022-10-10T08:23:51.810Z,4.47
2022-10-10T08:26:20.112Z,4.25
2022-10-10T08:28:48.621Z,4.43
2022-10-10T08:31:18.216Z,4.85
2022-10-10T08:33:46.162Z,4.35
2022-10-10T08:36:16.238Z,4.18
2022-10-10T08:38:43.865Z,4.15
2022-10-10T08:41:31.872Z,4.53
2022-10-10T08:44:02.520Z,4.13
2022-10-10T08:46:44.806Z,4.65
2022-10-10T08:49:49.817Z,4.22
2022-10-10T08:52:25.565Z,4.43
2022-10-10T08:54:58.127Z,4.30
2022-10-10T08:57:31.660Z,4.90
2022-10-10T09:00:06.338Z,4.50
2022-10-10T09:02:55.883Z,4.53
2022-10-10T09:05:45.576Z,4.68
2022-10-10T09:08:26.812Z,4.72
2022-10-10T09:11:06.505Z,4.53
2022-10-10T09:13:38.134Z,4.30
2022-10-10T09:16:22.964Z,5.20
2022-10-10T09:19:17.504Z,4.80
2022-10-10T09:21:46.008Z,5.05
2022-10-10T09:24:34.324Z,5.30
2022-10-10T09:27:06.163Z,5.13
2022-10-10T09:29:41.964Z,5.03
2022-10-10T09:32:36.092Z,4.68
2022-10-10T09:35:14.392Z,4.88
2022-10-10T09:37:47.514Z,5.13
2022-10-10T09:40:17.804Z,4.93
2022-10-10T09:45:22.332Z,5.03
2022-10-10T09:47:53.277Z,5.53
2022-10-10T09:50:20.396Z,5.35
2022-10-10T09:52:47.538Z,5.40
2022-10-10T09:55:30.728Z,5.88
2022-10-10T09:58:04.512Z,5.82
2022-10-10T10:00:36.689Z,5.20
2022-10-10T10:03:10.949Z,5.50
2022-10-10T10:05:38.953Z,6.03
2022-10-10T10:08:06.752Z,5.32
2022-10-10T10:10:36.155Z,5.18
2022-10-10T10:13:03.180Z,5.22
2022-10-10T10:15:32.247Z,6.35
2022-10-10T10:18:17.073Z,5.85
2022-10-10T10:20:46.461Z,5.40
2022-10-10T10:23:26.961Z,6.03
2022-10-10T10:26:00.145Z,5.25
2022-10-10T10:28:27.670Z,5.90
2022-10-10T10:30:57.177Z,6.65
2022-10-10T10:33:26.724Z,6.38
2022-10-10T10:36:46.219Z,5.90
2022-10-10T10:39:33.489Z,6.68
2022-10-10T10:42:09.185Z,6.28
2022-10-10T10:44:47.760Z,6.35
2022-10-10T10:47:34.617Z,6.45
2022-10-10T10:50:26.968Z,6.50
2022-10-10T10:53:22.247Z,6.18
2022-10-10T10:55:48.811Z,6.93
2022-10-10T11:01:44.707Z,6.90
2022-10-10T11:05:23.794Z,6.38
2022-10-10T11:07:28.198Z,6.45
2022-10-10T11:10:14.433Z,7.55
2022-10-10T11:12:50.146Z,7.13
2022-10-10T11:15:30.765Z,6.95
2022-10-10T11:18:19.204Z,7.47
2022-10-10T11:21:04.975Z,7.30
2022-10-10T11:23:38.916Z,7.10
2022-10-10T11:26:12.938Z,7.53
2022-10-10T11:28:51.433Z,8.27
2022-10-10T11:31:23.485Z,7.95
2022-10-10T11:33:58.692Z,7.38
2022-10-10T11:36:35.203Z,8.05
2022-10-10T11:39:15.362Z,8.15
2022-10-10T11:41:58.142Z,7.97
2022-10-10T11:44:36.716Z,8.10
2022-10-10T11:47:18.932Z,7.90
2022-10-10T11:50:02.620Z,8.52
2022-10-10T11:52:58.767Z,8.30
2022-10-10T11:56:13.739Z,7.63
2022-10-10T11:58:44.543Z,8.35
2022-10-10T12:01:20.607Z,8.18
2022-10-10T12:03:47.520Z,8.40
2022-10-10T12:06:14.137Z,8.75
2022-10-10T12:08:47.823Z,8.68
2022-10-10T12:11:28.306Z,8.40
2022-10-10T12:14:09.675Z,8.43
2022-10-10T12:16:37.784Z,8.85
2022-10-10T12:19:07.333Z,8.93
2022-10-10T12:21:54.039Z,9.07
2022-10-10T12:24:21.826Z,8.55
2022-10-10T12:26:57.511Z,9.70
2022-10-10T12:29:50.720Z,9.10
2022-10-10T12:32:20.849Z,9.77
2022-10-10T12:37:34.486Z,10.82
2022-10-10T12:40:07.315Z,10.85
2022-10-10T12:42:46.135Z,9.82
2022-10-10T12:45:31.176Z,10.13
2022-10-10T12:48:05.825Z,11.27
2022-10-10T12:50:41.929Z,11.10
2022-10-10T12:53:21.270Z,11.00
2022-10-10T12:55:50.107Z,11.00
2022-10-10T12:58:27.037Z,10.37
2022-10-10T13:01:18.888Z,11.15
2022-10-10T13:03:48.321Z,11.02
2022-10-10T13:06:35.960Z,12.15
2022-10-10T13:09:10.720Z,12.70
2022-10-10T13:12:03.836Z,12.02
2022-10-10T13:14:41.307Z,11.60
2022-10-10T13:17:28.213Z,11.50
2022-10-10T13:19:57.378Z,11.43
2022-10-10T13:22:25.303Z,11.25
2022-10-10T13:24:52.679Z,12.30
2022-10-10T13:27:19.277Z,12.73
2022-10-10T13:29:46.665Z,13.70
2022-10-10T13:32:24.549Z,13.50
2022-10-10T13:35:04.368Z,13.73
2022-10-10T13:37:31.549Z,13.70
2022-10-10T13:39:58.595Z,15.70
2022-10-10T13:42:37.244Z,15.55
2022-10-10T13:45:31.391Z,15.77
2022-10-10T13:48:01.097Z,16.42
2022-10-10T13:50:31.959Z,17.73
2022-10-10T13:53:24.463Z,16.42
2022-10-10T13:56:12.906Z,17.45
2022-10-10T13:58:39.470Z,18.05
2022-10-10T14:01:06.530Z,17.92
2022-10-10T14:03:34.378Z,18.45
2022-10-10T14:06:01.409Z,17.58
2022-10-10T14:08:33.404Z,17.73
2022-10-10T14:11:08.647Z,17.67
2022-10-10T14:13:38.696Z,16.45
2022-10-10T14:16:17.794Z,17.20
2022-10-10T14:18:46.070Z,17.80
2022-10-10T14:21:13.210Z,17.27
2022-10-10T14:23:40.104Z,16.92
2022-10-10T14:26:12.880Z,15.82
2022-10-10T14:28:40.226Z,17.80
2022-10-10T14:31:07.262Z,17.67
2022-10-10T14:33:33.921Z,18.55
2022-10-10T14:36:01.263Z,18.35
2022-10-10T14:38:28.225Z,18.75
2022-10-10T14:40:55.835Z,19.20
2022-10-10T14:43:25.232Z,21.10
2022-10-10T14:45:53.463Z,21.75
2022-10-10T14:48:20.479Z,17.40
2022-10-10T14:50:49.286Z,19.20
2022-10-10T14:53:16.094Z,18.93
2022-10-10T14:55:46.000Z,28.30
2022-10-10T14:58:20.893Z,26.00
2022-10-10T15:00:48.096Z,24.95
2022-10-10T15:03:15.152Z,25.38
2022-10-10T15:05:42.333Z,21.38
2022-10-10T15:08:14.484Z,19.30
2022-10-10T15:10:41.758Z,18.77
2022-10-10T15:13:09.629Z,18.63
2022-10-10T15:15:36.268Z,18.50
2022-10-10T15:18:02.975Z,19.27
2022-10-10T15:20:32.840Z,18.50
2022-10-10T15:23:02.519Z,18.38
2022-10-10T15:28:04.415Z,18.95
2022-10-10T15:30:31.156Z,19.38
2022-10-10T15:32:57.788Z,20.92
2022-10-10T15:35:25.230Z,20.17
2022-10-10T15:37:52.373Z,21.27
2022-10-10T15:40:22.538Z,21.73
2022-10-10T15:42:50.385Z,21.35
2022-10-10T15:45:31.303Z,22.13
2022-10-10T15:48:05.332Z,21.30
2022-10-10T15:50:34.379Z,20.95
2022-10-10T15:53:01.008Z,20.75
2022-10-10T15:55:27.616Z,21.05
2022-10-10T15:57:54.229Z,21.98
2022-10-10T16:00:20.889Z,22.58
2022-10-10T16:02:47.548Z,22.45
2022-10-10T16:05:14.157Z,25.38
2022-10-10T16:07:47.546Z,29.42
2022-10-10T16:10:15.161Z,47.33
2022-10-10T16:12:41.777Z,36.80
2022-10-10T16:15:08.944Z,39.53
2022-10-10T16:17:35.631Z,41.85
2022-10-10T16:20:02.310Z,37.03
2022-10-10T16:22:28.898Z,36.78
2022-10-10T16:27:43.051Z,31.70
2022-10-10T16:30:10.611Z,37.47
2022-10-10T16:32:42.118Z,40.85
2022-10-10T16:35:10.203Z,39.42
2022-10-10T16:37:36.875Z,38.63
2022-10-10T16:40:03.917Z,39.92
2022-10-10T16:42:30.608Z,41.30
2022-10-10T16:44:57.284Z,40.28
2022-10-10T16:47:23.908Z,37.38
2022-10-10T16:49:50.510Z,44.28
2022-10-10T16:52:17.172Z,37.83
2022-10-10T16:54:43.788Z,39.13
2022-10-10T16:57:12.034Z,41.75
2022-10-10T16:59:38.715Z,49.92
2022-10-10T17:02:05.326Z,49.38
2022-10-10T17:04:32.076Z,52.78
2022-10-10T17:06:58.717Z,62.88
2022-10-10T17:09:25.336Z,60.38
2022-10-10T17:11:51.962Z,74.03
2022-10-10T17:14:18.927Z,75.90
2022-10-10T17:17:10.458Z,81.18
2022-10-10T17:19:32.904Z,75.57
2022-10-10T17:21:59.642Z,72.90
2022-10-10T17:24:26.437Z,69.82
2022-10-10T17:26:53.094Z,62.55
2022-10-10T17:29:19.880Z,59.60
2022-10-10T17:31:46.507Z,65.22
2022-10-10T17:34:13.120Z,64.40
2022-10-10T17:36:39.731Z,62.38
2022-10-10T17:39:07.586Z,65.07
2022-10-10T17:41:34.618Z,66.95
2022-10-10T17:44:01.354Z,64.43
2022-10-10T17:46:34.839Z,64.95
2022-10-10T17:49:06.605Z,66.32
2022-10-10T17:51:34.313Z,63.22
2022-10-10T17:54:01.090Z,64.95
2022-10-10T17:56:28.480Z,64.60
2022-10-10T17:58:55.060Z,59.50
2022-10-10T18:01:21.836Z,61.17
2022-10-10T18:03:49.129Z,59.15
2022-10-10T18:06:18.535Z,58.25
2022-10-10T18:08:47.349Z,57.85
2022-10-10T18:11:20.176Z,64.40
2022-10-10T18:13:47.657Z,58.38
2022-10-10T18:16:17.123Z,57.92
2022-10-10T18:18:50.445Z,53.83
2022-10-10T18:21:20.293Z,56.45
2022-10-10T18:23:47.687Z,49.72
2022-10-10T18:26:20.180Z,49.83
2022-10-10T18:28:48.094Z,61.90
2022-10-10T18:31:17.627Z,75.43
2022-10-10T18:33:45.098Z,73.03
2022-10-10T18:36:13.927Z,73.00
2022-10-10T18:38:40.635Z,68.35
2022-10-10T18:41:10.825Z,63.60
2022-10-10T18:43:38.524Z,61.92
2022-10-10T18:46:07.918Z,66.85
2022-10-10T18:48:36.292Z,62.47
2022-10-10T18:51:07.042Z,58.40
2022-10-10T18:53:38.631Z,52.03
2022-10-10T18:56:06.493Z,58.17
2022-10-10T18:58:35.190Z,59.13
2022-10-10T19:01:07.180Z,64.75
2022-10-10T19:03:35.643Z,80.20
2022-10-10T19:06:03.696Z,72.43
2022-10-10T19:08:31.941Z,65.15
2022-10-10T19:10:59.088Z,53.47
2022-10-10T19:13:26.866Z,68.65
2022-10-10T19:15:54.041Z,81.07
2022-10-10T19:18:23.955Z,121.97
2022-10-10T19:23:17.236Z,140.50
2022-10-10T19:25:46.275Z,121.57
2022-10-10T19:28:12.969Z,113.68
2022-10-10T19:30:42.179Z,111.80
2022-10-10T19:33:09.448Z,103.63
2022-10-10T19:35:41.679Z,87.43
2022-10-10T19:38:10.283Z,83.15
2022-10-10T19:40:43.659Z,84.32
2022-10-10T19:43:10.448Z,69.97
2022-10-10T19:45:46.963Z,72.15
2022-10-10T19:48:17.875Z,73.28
2022-10-10T19:50:47.052Z,69.63
2022-10-10T19:53:20.086Z,48.30
2022-10-10T19:55:57.991Z,47.20
2022-10-10T19:58:24.706Z,40.47
2022-10-10T20:00:51.471Z,39.70
2022-10-10T20:03:18.466Z,37.75
2022-10-10T20:05:45.248Z,37.35
2022-10-10T20:08:11.872Z,35.42
2022-10-10T20:10:43.163Z,34.50
2022-10-10T20:13:14.822Z,34.75
2022-10-10T20:15:47.205Z,32.92
2022-10-10T20:18:13.835Z,32.00
2022-10-10T20:20:47.869Z,35.08
2022-10-10T20:23:16.320Z,33.97
2022-10-10T20:25:44.700Z,34.42
2022-10-10T20:28:13.146Z,29.05
2022-10-10T20:30:42.782Z,26.38
2022-10-10T20:33:09.573Z,27.02
2022-10-10T20:35:37.148Z,24.25
2022-10-10T20:38:04.680Z,26.73
2022-10-10T20:40:31.900Z,26.00
2022-10-10T20:42:58.527Z,25.70
2022-10-10T20:45:25.195Z,25.88
2022-10-10T20:47:51.801Z,25.25
2022-10-10T20:50:18.477Z,26.40
2022-10-10T20:52:45.078Z,26.35
2022-10-10T20:55:11.755Z,25.35
2022-10-10T20:57:38.379Z,25.27
2022-10-10T21:00:06.321Z,23.48
2022-10-10T21:02:33.934Z,25.58
2022-10-10T21:05:00.568Z,23.90
2022-10-10T21:07:29.076Z,23.77
2022-10-10T21:09:55.725Z,24.08
2022-10-10T21:12:22.391Z,25.00
2022-10-10T21:14:48.991Z,23.77
2022-10-10T21:17:15.608Z,22.17
2022-10-10T21:19:42.377Z,23.90
2022-10-10T21:22:09.709Z,23.10
2022-10-10T21:24:36.666Z,22.00
2022-10-10T21:27:03.426Z,22.73
2022-10-10T21:29:30.056Z,23.83
2022-10-10T21:31:56.658Z,22.17
2022-10-10T21:34:23.345Z,21.80
2022-10-10T21:36:49.993Z,22.42
2022-10-10T21:39:16.789Z,22.70
2022-10-10T21:41:43.547Z,22.40
2022-10-10T21:44:10.679Z,23.00
2022-10-10T21:46:37.858Z,22.77
2022-10-10T21:49:10.263Z,21.90
2022-10-10T21:51:39.700Z,24.35
2022-10-10T21:54:07.518Z,22.52
2022-10-10T21:56:34.324Z,22.55
2022-10-10T21:59:01.653Z,22.40
2022-10-10T22:01:31.606Z,22.42
2022-10-10T22:03:58.799Z,20.77
2022-10-10T22:06:25.869Z,21.20
2022-10-10T22:08:54.884Z,22.02
2022-10-10T22:11:24.658Z,22.37
2022-10-10T22:13:51.909Z,22.40
2022-10-10T22:16:18.997Z,23.05
2022-10-10T22:18:45.707Z,22.33
2022-10-10T22:21:15.529Z,22.67
2022-10-10T22:26:11.888Z,19.70
2022-10-10T22:28:38.897Z,20.50
2022-10-10T22:31:10.568Z,21.98
2022-10-10T22:33:37.546Z,22.40
2022-10-10T22:36:05.516Z,22.42
2022-10-10T22:38:32.845Z,21.55
2022-10-10T22:40:59.677Z,21.42
2022-10-10T22:43:27.308Z,21.52
2022-10-10T22:45:54.330Z,24.15
2022-10-10T22:48:20.984Z,21.95
2022-10-10T22:50:47.612Z,22.52
2022-10-10T22:53:14.237Z,21.58
2022-10-10T22:55:40.937Z,22.40
2022-10-10T22:58:07.575Z,21.33
2022-10-10T23:00:34.343Z,21.52
2022-10-10T23:03:01.004Z,19.95
2022-10-10T23:05:27.681Z,19.73
2022-10-10T23:07:54.317Z,21.75
2022-10-10T23:10:20.939Z,21.45
2022-10-10T23:12:47.586Z,22.08
2022-10-10T23:15:14.251Z,21.63
2022-10-10T23:17:40.884Z,20.35
2022-10-10T23:20:08.112Z,21.35
2022-10-10T23:22:34.740Z,20.58
2022-10-10T23:25:01.358Z,20.88
2022-10-10T23:27:28.055Z,20.75
2022-10-10T23:29:54.723Z,20.70
2022-10-10T23:32:23.090Z,22.88
2022-10-10T23:34:50.044Z,22.38
2022-10-10T23:37:16.647Z,22.42
2022-10-10T23:39:43.589Z,22.13
2022-10-10T23:42:10.351Z,21.50
2022-10-10T23:44:37.004Z,21.25
2022-10-10T23:47:03.735Z,21.23
2022-10-10T23:49:30.540Z,22.02
2022-10-10T23:51:57.323Z,20.65
2022-10-10T23:54:23.961Z,20.95
2022-10-10T23:56:50.608Z,20.38
2022-10-10T23:59:17.360Z,21.27
